createdAt,value
2018-07-31T00:00:53.150Z,19.82
2018-07-31T00:01:53.140Z,19.81
2018-07-31T00:02:53.142Z,19.84
2018-07-31T00:03:53.114Z,19.74
2018-07-31T00:04:53.116Z,19.73
2018-07-31T00:05:53.096Z,19.66
2018-07-31T00:06:53.088Z,19.70
2018-07-31T00:07:53.091Z,19.73
2018-07-31T00:08:53.100Z,19.66
2018-07-31T00:09:53.048Z,19.66
2018-07-31T00:10:53.038Z,19.69
2018-07-31T00:11:53.028Z,19.69
2018-07-31T00:12:53.039Z,19.73
2018-07-31T00:13:53.012Z,19.66
2018-07-31T00:14:53.010Z,19.66
2018-07-31T00:15:52.986Z,19.64
2018-07-31T00:16:52.979Z,19.62
2018-07-31T00:17:52.996Z,19.66
2018-07-31T00:18:52.953Z,19.67
2018-07-31T00:19:52.943Z,19.66
2018-07-31T00:20:52.928Z,19.70
2018-07-31T00:21:52.916Z,19.67
2018-07-31T00:22:52.924Z,19.63
2018-07-31T00:23:52.895Z,19.69
2018-07-31T00:24:52.896Z,19.58
2018-07-31T00:25:52.880Z,19.56
2018-07-31T00:26:52.873Z,19.64
2018-07-31T00:27:52.888Z,19.54
2018-07-31T00:28:52.851Z,19.55
2018-07-31T00:29:52.832Z,19.55
2018-07-31T00:30:52.839Z,19.58
2018-07-31T00:31:52.808Z,19.56
2018-07-31T00:32:52.821Z,19.54
2018-07-31T00:33:52.807Z,19.51
2018-07-31T00:34:52.775Z,19.59
2018-07-31T00:35:52.762Z,19.56
2018-07-31T00:36:52.757Z,19.59
2018-07-31T00:37:52.745Z,19.55
2018-07-31T00:38:52.761Z,19.51
2018-07-31T00:39:52.724Z,19.52
2018-07-31T00:40:52.707Z,19.44
2018-07-31T00:41:52.708Z,19.44
2018-07-31T00:42:52.687Z,19.39
2018-07-31T00:43:52.672Z,19.34
2018-07-31T00:44:52.690Z,19.29
2018-07-31T00:45:52.656Z,19.31
2018-07-31T00:46:52.645Z,19.27
2018-07-31T00:47:52.636Z,19.34
2018-07-31T00:48:52.617Z,19.30
2018-07-31T00:49:52.637Z,19.30
2018-07-31T00:50:52.601Z,19.24
2018-07-31T00:51:52.592Z,19.30
2018-07-31T00:52:52.575Z,19.19
2018-07-31T00:53:52.571Z,19.24
2018-07-31T00:54:52.557Z,19.26
2018-07-31T00:55:52.565Z,19.12
2018-07-31T00:56:52.541Z,19.26
2018-07-31T00:57:52.523Z,19.19
2018-07-31T00:58:52.518Z,19.12
2018-07-31T00:59:52.529Z,19.00
2018-07-31T01:00:52.513Z,19.15
2018-07-31T01:01:52.479Z,19.02
2018-07-31T01:02:52.467Z,19.11
2018-07-31T01:03:52.457Z,19.04
2018-07-31T01:04:52.451Z,19.00
2018-07-31T01:05:52.436Z,19.00
2018-07-31T01:06:52.443Z,19.04
2018-07-31T01:07:52.415Z,18.89
2018-07-31T01:08:52.420Z,18.90
2018-07-31T01:09:52.393Z,18.96
2018-07-31T01:10:52.412Z,18.90
2018-07-31T01:11:52.403Z,18.81
2018-07-31T01:12:52.357Z,18.73
2018-07-31T01:13:52.345Z,18.75
2018-07-31T01:14:52.337Z,18.77
2018-07-31T01:15:52.323Z,18.73
2018-07-31T01:16:52.320Z,18.71
2018-07-31T01:17:52.329Z,18.66
2018-07-31T01:18:52.296Z,18.62
2018-07-31T01:19:52.324Z,18.60
2018-07-31T01:20:52.278Z,18.55
2018-07-31T01:21:52.261Z,18.52
2018-07-31T01:22:52.272Z,18.45
2018-07-31T01:23:52.248Z,18.49
2018-07-31T01:24:52.227Z,18.45
2018-07-31T01:25:52.227Z,18.40
2018-07-31T01:26:52.208Z,18.37
2018-07-31T01:27:52.215Z,18.40
2018-07-31T01:28:52.192Z,18.28
2018-07-31T01:29:52.179Z,18.28
2018-07-31T01:30:52.169Z,18.29
2018-07-31T01:31:52.160Z,18.26
2018-07-31T01:32:52.160Z,18.22
2018-07-31T01:33:52.132Z,18.25
2018-07-31T01:34:52.137Z,18.20
2018-07-31T01:35:52.108Z,18.25
2018-07-31T01:36:52.116Z,18.16
2018-07-31T01:37:52.113Z,18.13
2018-07-31T01:38:52.078Z,18.15
2018-07-31T01:39:52.066Z,18.15
2018-07-31T01:40:52.062Z,18.13
2018-07-31T01:41:52.049Z,18.16
2018-07-31T01:42:52.057Z,18.13
2018-07-31T01:43:52.029Z,18.08
2018-07-31T01:44:52.012Z,18.08
2018-07-31T01:45:52.028Z,18.00
2018-07-31T01:46:51.994Z,17.95
2018-07-31T01:47:51.999Z,17.95
2018-07-31T01:48:51.977Z,17.92
2018-07-31T01:49:51.965Z,17.85
2018-07-31T01:50:51.955Z,17.86
2018-07-31T01:51:51.942Z,17.83
2018-07-31T01:52:51.948Z,17.71
2018-07-31T01:53:51.919Z,17.67
2018-07-31T01:54:51.912Z,17.71
2018-07-31T01:55:51.909Z,17.65
2018-07-31T01:56:51.885Z,17.63
2018-07-31T01:57:51.892Z,17.65
2018-07-31T01:58:51.863Z,17.83
2018-07-31T01:59:51.854Z,17.72
2018-07-31T02:00:51.846Z,17.68
2018-07-31T02:01:51.840Z,17.68
2018-07-31T02:02:51.850Z,17.70
2018-07-31T02:03:51.815Z,17.74
2018-07-31T02:04:51.804Z,17.74
2018-07-31T02:05:51.790Z,17.65
2018-07-31T02:06:51.776Z,17.63
2018-07-31T02:07:51.789Z,17.67
2018-07-31T02:08:51.761Z,17.68
2018-07-31T02:09:51.754Z,17.71
2018-07-31T02:10:51.735Z,17.71
2018-07-31T02:11:51.727Z,17.74
2018-07-31T02:12:51.738Z,17.82
2018-07-31T02:13:51.710Z,17.71
2018-07-31T02:14:51.717Z,17.71
2018-07-31T02:15:51.691Z,17.74
2018-07-31T02:16:51.673Z,17.65
2018-07-31T02:17:51.689Z,17.72
2018-07-31T02:18:51.650Z,17.74
2018-07-31T02:19:51.642Z,17.70
2018-07-31T02:20:51.634Z,17.76
2018-07-31T02:21:51.633Z,17.76
2018-07-31T02:22:51.617Z,17.68
2018-07-31T02:23:51.620Z,17.67
2018-07-31T02:24:51.589Z,17.68
2018-07-31T02:25:51.575Z,17.71
2018-07-31T02:26:51.573Z,17.68
2018-07-31T02:27:51.565Z,17.64
2018-07-31T02:28:51.575Z,17.67
2018-07-31T02:29:51.536Z,17.71
2018-07-31T02:30:51.524Z,17.74
2018-07-31T02:31:51.522Z,17.56
2018-07-31T02:32:51.508Z,17.70
2018-07-31T02:33:51.498Z,17.67
2018-07-31T02:34:51.504Z,17.67
2018-07-31T02:35:51.473Z,17.65
2018-07-31T02:36:51.461Z,17.68
2018-07-31T02:37:51.447Z,17.63
2018-07-31T02:38:51.440Z,17.67
2018-07-31T02:39:51.448Z,17.60
2018-07-31T02:40:51.420Z,17.60
2018-07-31T02:41:51.411Z,17.64
2018-07-31T02:42:51.396Z,17.65
2018-07-31T02:43:51.386Z,17.67
2018-07-31T02:44:51.397Z,17.68
2018-07-31T02:45:51.368Z,17.79
2018-07-31T02:46:51.404Z,17.71
2018-07-31T02:47:51.345Z,17.65
2018-07-31T02:48:51.340Z,17.67
2018-07-31T02:49:51.350Z,17.68
2018-07-31T02:50:51.308Z,17.68
2018-07-31T02:51:51.300Z,17.72
2018-07-31T02:52:51.290Z,17.63
2018-07-31T02:53:51.283Z,17.68
2018-07-31T02:54:51.272Z,17.56
2018-07-31T02:55:51.287Z,17.63
2018-07-31T02:56:51.246Z,17.72
2018-07-31T02:57:51.232Z,17.68
2018-07-31T02:58:51.237Z,17.65
2018-07-31T02:59:51.220Z,17.67
2018-07-31T03:00:51.224Z,17.64
2018-07-31T03:01:51.192Z,17.57
2018-07-31T03:02:51.180Z,17.60
2018-07-31T03:03:51.173Z,17.59
2018-07-31T03:04:51.164Z,17.52
2018-07-31T03:05:51.184Z,17.52
2018-07-31T03:06:51.144Z,17.41
2018-07-31T03:07:51.132Z,17.42
2018-07-31T03:08:51.118Z,17.42
2018-07-31T03:09:51.118Z,17.41
2018-07-31T03:10:51.095Z,17.39
2018-07-31T03:11:51.108Z,17.41
2018-07-31T03:12:51.079Z,17.44
2018-07-31T03:13:51.070Z,17.46
2018-07-31T03:14:51.057Z,17.38
2018-07-31T03:15:51.045Z,17.36
2018-07-31T03:16:51.067Z,17.41
2018-07-31T03:17:51.026Z,17.24
2018-07-31T03:18:51.018Z,17.29
2018-07-31T03:19:51.006Z,17.22
2018-07-31T03:20:50.993Z,17.30
2018-07-31T03:21:50.977Z,17.29
2018-07-31T03:22:50.985Z,17.27
2018-07-31T03:23:50.957Z,17.22
2018-07-31T03:24:50.951Z,17.23
2018-07-31T03:25:50.948Z,17.23
2018-07-31T03:26:50.930Z,17.11
2018-07-31T03:27:50.965Z,17.11
2018-07-31T03:28:50.918Z,17.14
2018-07-31T03:29:50.891Z,17.14
2018-07-31T03:30:50.889Z,17.09
2018-07-31T03:31:50.874Z,17.08
2018-07-31T03:32:50.867Z,17.02
2018-07-31T03:33:50.875Z,17.01
2018-07-31T03:34:50.837Z,17.01
2018-07-31T03:35:50.829Z,17.02
2018-07-31T03:36:50.821Z,17.02
2018-07-31T03:37:50.811Z,17.01
2018-07-31T03:38:50.799Z,17.01
2018-07-31T03:39:50.808Z,16.89
2018-07-31T03:40:50.773Z,16.87
2018-07-31T03:41:50.764Z,16.91
2018-07-31T03:42:50.750Z,16.96
2018-07-31T03:43:50.760Z,16.91
2018-07-31T03:44:50.758Z,16.90
2018-07-31T03:45:50.723Z,16.93
2018-07-31T03:46:50.706Z,16.97
2018-07-31T03:47:50.699Z,16.90
2018-07-31T03:48:50.692Z,16.91
2018-07-31T03:49:50.712Z,16.87
2018-07-31T03:50:50.670Z,16.83
2018-07-31T03:51:50.659Z,16.79
2018-07-31T03:52:50.644Z,16.76
2018-07-31T03:53:51.266Z,16.78
2018-07-31T03:54:50.648Z,16.86
2018-07-31T03:55:50.611Z,16.86
2018-07-31T03:56:50.606Z,16.87
2018-07-31T03:57:50.593Z,16.94
2018-07-31T03:58:50.587Z,16.96
2018-07-31T03:59:50.569Z,16.86
2018-07-31T04:00:50.578Z,17.02
2018-07-31T04:01:50.554Z,16.96
2018-07-31T04:02:50.550Z,16.93
2018-07-31T04:03:50.526Z,16.93
2018-07-31T04:04:50.513Z,16.99
2018-07-31T04:05:50.519Z,16.96
2018-07-31T04:06:50.497Z,16.90
2018-07-31T04:07:50.482Z,16.90
2018-07-31T04:08:50.472Z,16.93
2018-07-31T04:09:50.469Z,16.96
2018-07-31T04:10:50.482Z,16.87
2018-07-31T04:11:50.442Z,16.90
2018-07-31T04:12:50.428Z,16.91
2018-07-31T04:13:50.415Z,16.87
2018-07-31T04:14:50.413Z,16.87
2018-07-31T04:15:50.422Z,16.89
2018-07-31T04:16:50.480Z,16.83
2018-07-31T04:17:50.392Z,16.83
2018-07-31T04:18:50.361Z,16.86
2018-07-31T04:19:50.362Z,16.89
2018-07-31T04:20:50.373Z,16.94
2018-07-31T04:21:50.373Z,17.02
2018-07-31T04:22:50.322Z,17.11
2018-07-31T04:23:50.315Z,17.01
2018-07-31T04:24:50.298Z,17.14
2018-07-31T04:25:50.284Z,17.06
2018-07-31T04:26:50.315Z,17.09
2018-07-31T04:27:50.312Z,17.06
2018-07-31T04:28:50.304Z,17.06
2018-07-31T04:29:50.301Z,17.06
2018-07-31T04:30:50.297Z,17.14
2018-07-31T04:31:50.284Z,17.02
2018-07-31T04:32:50.301Z,17.08
2018-07-31T04:33:50.300Z,17.16
2018-07-31T04:34:50.246Z,17.06
2018-07-31T04:35:50.271Z,17.19
2018-07-31T04:36:50.171Z,17.16
2018-07-31T04:37:50.173Z,17.08
2018-07-31T04:38:50.143Z,17.09
2018-07-31T04:39:50.139Z,17.05
2018-07-31T04:40:50.138Z,17.08
2018-07-31T04:41:50.117Z,17.11
2018-07-31T04:42:50.129Z,17.19
2018-07-31T04:43:50.096Z,17.19
2018-07-31T04:44:50.090Z,17.22
2018-07-31T04:45:50.067Z,17.29
2018-07-31T04:46:50.060Z,17.26
2018-07-31T04:47:50.080Z,17.26
2018-07-31T04:48:50.051Z,17.33
2018-07-31T04:49:50.048Z,17.36
2018-07-31T04:50:50.023Z,17.39
2018-07-31T04:51:50.011Z,17.52
2018-07-31T04:52:50.016Z,17.49
2018-07-31T04:53:49.985Z,17.65
2018-07-31T04:54:49.981Z,17.59
2018-07-31T04:55:49.964Z,17.71
2018-07-31T04:56:50.013Z,17.76
2018-07-31T04:57:49.961Z,17.79
2018-07-31T04:58:49.939Z,17.87
2018-07-31T04:59:49.919Z,17.92
2018-07-31T05:00:49.954Z,17.97
2018-07-31T05:01:49.903Z,18.04
2018-07-31T05:02:49.914Z,18.15
2018-07-31T05:03:49.884Z,18.10
2018-07-31T05:04:49.866Z,18.25
2018-07-31T05:05:49.871Z,18.28
2018-07-31T05:06:49.848Z,18.34
2018-07-31T05:07:49.881Z,18.52
2018-07-31T05:08:49.858Z,18.50
2018-07-31T05:09:49.826Z,18.66
2018-07-31T05:10:49.803Z,18.65
2018-07-31T05:11:49.792Z,18.73
2018-07-31T05:12:49.801Z,18.88
2018-07-31T05:13:49.794Z,18.93
2018-07-31T05:14:49.763Z,19.04
2018-07-31T05:15:49.750Z,19.12
2018-07-31T05:16:49.735Z,19.14
2018-07-31T05:17:49.742Z,19.21
2018-07-31T05:18:49.711Z,19.16
2018-07-31T05:19:49.711Z,19.34
2018-07-31T05:20:49.697Z,19.34
2018-07-31T05:21:49.694Z,19.36
2018-07-31T05:22:49.695Z,19.36
2018-07-31T05:23:49.663Z,19.33
2018-07-31T05:24:49.650Z,19.41
2018-07-31T05:25:49.641Z,19.45
2018-07-31T05:26:49.694Z,19.51
2018-07-31T05:27:49.637Z,19.54
2018-07-31T05:28:49.605Z,19.66
2018-07-31T05:29:49.591Z,19.79
2018-07-31T05:30:49.993Z,19.85
2018-07-31T05:31:49.582Z,19.91
2018-07-31T05:32:50.226Z,20.03
2018-07-31T05:33:49.592Z,20.07
2018-07-31T05:34:49.565Z,20.18
2018-07-31T05:35:49.531Z,20.25
2018-07-31T05:36:49.534Z,20.21
2018-07-31T05:37:49.506Z,20.34
2018-07-31T05:38:49.519Z,20.28
2018-07-31T05:39:49.488Z,20.25
2018-07-31T05:40:49.489Z,20.34
2018-07-31T05:41:49.462Z,20.37
2018-07-31T05:42:49.498Z,20.39
2018-07-31T05:43:49.714Z,20.34
2018-07-31T05:44:49.443Z,20.31
2018-07-31T05:45:49.425Z,20.32
2018-07-31T05:46:49.416Z,20.25
2018-07-31T05:47:49.430Z,20.36
2018-07-31T05:48:49.386Z,20.39
2018-07-31T05:49:49.373Z,20.31
2018-07-31T05:50:49.368Z,20.41
2018-07-31T05:51:49.406Z,20.43
2018-07-31T05:52:49.346Z,20.47
2018-07-31T05:53:49.356Z,20.47
2018-07-31T05:54:49.357Z,20.47
2018-07-31T05:55:49.377Z,20.48
2018-07-31T05:56:49.304Z,20.51
2018-07-31T05:57:49.299Z,20.44
2018-07-31T05:58:49.300Z,20.41
2018-07-31T05:59:49.276Z,20.47
2018-07-31T06:00:49.257Z,20.43
2018-07-31T06:01:49.242Z,20.51
2018-07-31T06:02:49.237Z,20.43
2018-07-31T06:03:49.251Z,20.51
2018-07-31T06:04:49.214Z,20.43
2018-07-31T06:05:49.207Z,20.44
2018-07-31T06:06:49.195Z,20.26
2018-07-31T06:07:49.183Z,20.37
2018-07-31T06:08:49.167Z,20.43
2018-07-31T06:09:49.176Z,20.37
2018-07-31T06:10:49.152Z,20.47
2018-07-31T06:11:49.140Z,20.65
2018-07-31T06:12:49.126Z,20.63
2018-07-31T06:13:49.119Z,20.60
2018-07-31T06:14:49.130Z,20.60
2018-07-31T06:15:49.106Z,20.62
2018-07-31T06:16:49.085Z,20.69
2018-07-31T06:17:49.076Z,20.74
2018-07-31T06:18:49.067Z,20.77
2018-07-31T06:19:49.053Z,20.90
2018-07-31T06:20:49.068Z,20.90
2018-07-31T06:21:49.032Z,20.87
2018-07-31T06:22:49.049Z,20.92
2018-07-31T06:23:49.008Z,20.99
2018-07-31T06:24:49.004Z,20.90
2018-07-31T06:25:48.990Z,21.05
2018-07-31T06:26:48.994Z,21.09
2018-07-31T06:27:48.964Z,21.22
2018-07-31T06:28:48.961Z,21.35
2018-07-31T06:29:48.947Z,21.45
2018-07-31T06:30:48.940Z,21.46
2018-07-31T06:31:48.943Z,21.61
2018-07-31T06:32:48.943Z,21.72
2018-07-31T06:33:48.901Z,21.88
2018-07-31T06:34:48.890Z,21.93
2018-07-31T06:35:48.879Z,22.08
2018-07-31T06:36:48.895Z,22.25
2018-07-31T06:37:48.877Z,22.28
2018-07-31T06:38:48.851Z,22.47
2018-07-31T06:39:48.843Z,22.62
2018-07-31T06:40:48.854Z,22.75
2018-07-31T06:41:48.858Z,22.87
2018-07-31T06:42:48.809Z,22.94
2018-07-31T06:43:48.795Z,22.96
2018-07-31T06:44:48.783Z,23.24
2018-07-31T06:45:48.780Z,23.44
2018-07-31T06:46:48.758Z,23.59
2018-07-31T06:47:48.774Z,23.73
2018-07-31T06:48:48.742Z,23.88
2018-07-31T06:49:48.757Z,24.11
2018-07-31T06:50:48.722Z,24.18
2018-07-31T06:51:48.710Z,24.40
2018-07-31T06:52:48.728Z,24.61
2018-07-31T06:53:48.684Z,24.66
2018-07-31T06:54:48.673Z,24.89
2018-07-31T06:55:48.670Z,25.07
2018-07-31T06:56:48.717Z,25.21
2018-07-31T06:57:48.654Z,25.29
2018-07-31T06:58:48.662Z,25.43
2018-07-31T06:59:48.631Z,25.47
2018-07-31T07:00:48.627Z,25.51
2018-07-31T07:01:48.605Z,25.68
2018-07-31T07:02:48.621Z,25.60
2018-07-31T07:03:48.582Z,25.73
2018-07-31T07:04:48.569Z,25.77
2018-07-31T07:05:48.556Z,25.77
2018-07-31T07:06:48.547Z,25.83
2018-07-31T07:07:48.538Z,25.78
2018-07-31T07:08:48.552Z,25.84
2018-07-31T07:09:48.522Z,25.90
2018-07-31T07:10:48.512Z,25.81
2018-07-31T07:11:48.497Z,25.72
2018-07-31T07:12:48.486Z,25.81
2018-07-31T07:13:48.494Z,25.90
2018-07-31T07:14:48.472Z,25.91
2018-07-31T07:15:48.474Z,25.91
2018-07-31T07:16:48.442Z,26.00
2018-07-31T07:17:48.430Z,26.02
2018-07-31T07:18:48.448Z,26.02
2018-07-31T07:19:48.420Z,26.05
2018-07-31T07:20:48.404Z,26.02
2018-07-31T07:21:48.397Z,26.03
2018-07-31T07:22:48.385Z,26.00
2018-07-31T07:23:48.383Z,26.02
2018-07-31T07:24:48.381Z,25.85
2018-07-31T07:25:48.358Z,25.69
2018-07-31T07:26:48.366Z,25.68
2018-07-31T07:27:48.365Z,25.66
2018-07-31T07:28:48.335Z,25.51
2018-07-31T07:29:48.393Z,25.59
2018-07-31T07:30:48.308Z,25.68
2018-07-31T07:31:48.286Z,25.75
2018-07-31T07:32:48.278Z,25.75
2018-07-31T07:33:48.333Z,25.78
2018-07-31T07:34:48.285Z,25.70
2018-07-31T07:35:48.248Z,25.72
2018-07-31T07:36:48.238Z,25.63
2018-07-31T07:37:48.310Z,25.59
2018-07-31T07:38:48.216Z,25.65
2018-07-31T07:39:48.239Z,25.78
2018-07-31T07:40:48.223Z,25.78
2018-07-31T07:41:48.192Z,25.72
2018-07-31T07:42:48.176Z,25.77
2018-07-31T07:43:48.164Z,25.87
2018-07-31T07:44:48.151Z,25.93
2018-07-31T07:45:48.159Z,26.03
2018-07-31T07:46:48.187Z,26.02
2018-07-31T07:47:48.179Z,26.18
2018-07-31T07:48:48.110Z,26.13
2018-07-31T07:49:48.108Z,26.15
2018-07-31T07:50:48.117Z,26.25
2018-07-31T07:51:48.078Z,26.26
2018-07-31T07:52:48.070Z,26.33
2018-07-31T07:53:48.095Z,26.40
2018-07-31T07:54:48.052Z,26.48
2018-07-31T07:55:48.058Z,26.55
2018-07-31T07:56:48.034Z,26.51
2018-07-31T07:57:48.018Z,26.45
2018-07-31T07:58:48.020Z,26.45
2018-07-31T07:59:48.005Z,26.47
2018-07-31T08:00:48.015Z,26.51
2018-07-31T08:01:48.028Z,26.47
2018-07-31T08:02:47.962Z,26.74
2018-07-31T08:03:47.993Z,26.77
2018-07-31T08:04:47.974Z,26.73
2018-07-31T08:05:47.968Z,26.85
2018-07-31T08:06:47.947Z,26.80
2018-07-31T08:07:47.929Z,26.78
2018-07-31T08:08:47.916Z,26.90
2018-07-31T08:09:47.911Z,26.93
2018-07-31T08:10:47.898Z,26.99
2018-07-31T08:11:47.868Z,27.00
2018-07-31T08:12:47.873Z,27.00
2018-07-31T08:13:47.874Z,26.92
2018-07-31T08:14:47.847Z,26.83
2018-07-31T08:15:47.866Z,26.65
2018-07-31T08:16:47.835Z,26.66
2018-07-31T08:17:47.804Z,26.60
2018-07-31T08:18:47.809Z,26.71
2018-07-31T08:19:47.798Z,26.89
2018-07-31T08:20:47.804Z,27.07
2018-07-31T08:21:47.764Z,27.18
2018-07-31T08:22:47.758Z,27.37
2018-07-31T08:23:47.750Z,27.52
2018-07-31T08:24:47.735Z,27.65
2018-07-31T08:25:47.728Z,27.71
2018-07-31T08:26:47.748Z,27.58
2018-07-31T08:27:47.759Z,27.60
2018-07-31T08:28:47.711Z,27.70
2018-07-31T08:29:47.679Z,27.93
2018-07-31T08:30:47.669Z,28.04
2018-07-31T08:31:47.679Z,27.86
2018-07-31T08:32:47.676Z,27.82
2018-07-31T08:33:47.645Z,27.77
2018-07-31T08:34:47.628Z,27.70
2018-07-31T08:35:47.620Z,27.77
2018-07-31T08:36:47.636Z,27.78
2018-07-31T08:37:47.610Z,28.01
2018-07-31T08:38:47.594Z,28.25
2018-07-31T08:39:47.584Z,28.33
2018-07-31T08:40:47.569Z,28.45
2018-07-31T08:41:47.575Z,28.66
2018-07-31T08:42:47.555Z,28.85
2018-07-31T08:43:47.558Z,29.16
2018-07-31T08:44:47.532Z,29.24
2018-07-31T08:45:47.523Z,29.36
2018-07-31T08:46:47.533Z,29.39
2018-07-31T08:47:47.507Z,29.57
2018-07-31T08:48:47.489Z,29.73
2018-07-31T08:49:47.476Z,29.84
2018-07-31T08:50:47.474Z,30.05
2018-07-31T08:51:47.480Z,30.30
2018-07-31T08:52:47.449Z,30.48
2018-07-31T08:53:47.436Z,30.69
2018-07-31T08:54:47.427Z,30.75
2018-07-31T08:55:47.467Z,30.83
2018-07-31T08:56:47.433Z,30.99
2018-07-31T08:57:47.408Z,31.33
2018-07-31T08:58:47.391Z,31.52
2018-07-31T08:59:47.383Z,31.74
2018-07-31T09:00:47.368Z,31.58
2018-07-31T09:01:47.387Z,31.76
2018-07-31T09:02:47.405Z,31.87
2018-07-31T09:03:47.337Z,31.66
2018-07-31T09:04:47.343Z,31.70
2018-07-31T09:05:47.324Z,31.89
2018-07-31T09:06:47.332Z,32.03
2018-07-31T09:07:47.319Z,32.19
2018-07-31T09:08:47.365Z,32.29
2018-07-31T09:09:47.284Z,32.48
2018-07-31T09:10:47.273Z,32.36
2018-07-31T09:11:47.285Z,32.46
2018-07-31T09:12:47.252Z,32.45
2018-07-31T09:13:47.243Z,32.27
2018-07-31T09:14:47.237Z,32.07
2018-07-31T09:15:47.222Z,31.58
2018-07-31T09:16:47.240Z,31.36
2018-07-31T09:17:47.207Z,31.07
2018-07-31T09:18:47.197Z,30.99
2018-07-31T09:19:47.194Z,31.24
2018-07-31T09:20:47.176Z,31.09
2018-07-31T09:21:47.183Z,31.10
2018-07-31T09:22:47.156Z,31.47
2018-07-31T09:23:47.149Z,31.61
2018-07-31T09:24:47.198Z,31.78
2018-07-31T09:25:47.134Z,31.71
2018-07-31T09:26:47.162Z,31.85
2018-07-31T09:27:47.113Z,32.18
2018-07-31T09:28:47.102Z,32.60
2018-07-31T09:29:47.092Z,33.01
2018-07-31T09:30:47.123Z,33.40
2018-07-31T09:31:47.092Z,33.77
2018-07-31T09:32:47.057Z,33.99
2018-07-31T09:33:47.048Z,33.98
2018-07-31T09:34:47.069Z,34.24
2018-07-31T09:35:47.028Z,33.96
2018-07-31T09:36:47.053Z,33.74
2018-07-31T09:37:47.016Z,33.58
2018-07-31T09:38:47.001Z,32.95
2018-07-31T09:39:46.990Z,32.68
2018-07-31T09:40:46.988Z,32.34
2018-07-31T09:41:46.995Z,32.19
2018-07-31T09:42:47.056Z,32.04
2018-07-31T09:43:46.957Z,31.87
2018-07-31T09:44:46.940Z,31.69
2018-07-31T09:45:46.932Z,31.64
2018-07-31T09:46:46.924Z,31.59
2018-07-31T09:47:46.962Z,31.71
2018-07-31T09:48:46.947Z,31.77
2018-07-31T09:49:46.900Z,31.64
2018-07-31T09:50:46.897Z,31.49
2018-07-31T09:51:46.923Z,31.51
2018-07-31T09:52:46.867Z,31.39
2018-07-31T09:53:46.890Z,31.47
2018-07-31T09:54:46.897Z,31.47
2018-07-31T09:55:46.859Z,31.36
2018-07-31T09:56:46.869Z,31.25
2018-07-31T09:57:46.864Z,31.07
2018-07-31T09:58:46.803Z,30.99
2018-07-31T09:59:46.790Z,30.97
2018-07-31T10:00:46.790Z,30.78
2018-07-31T10:01:46.775Z,30.90
2018-07-31T10:02:46.807Z,30.80
2018-07-31T10:03:46.759Z,30.83
2018-07-31T10:04:46.756Z,31.05
2018-07-31T10:05:46.745Z,30.87
2018-07-31T10:06:46.723Z,30.75
2018-07-31T10:07:46.729Z,30.81
2018-07-31T10:08:46.709Z,31.18
2018-07-31T10:09:46.722Z,31.24
2018-07-31T10:10:46.684Z,31.31
2018-07-31T10:11:46.734Z,31.64
2018-07-31T10:12:46.687Z,31.73
2018-07-31T10:13:46.656Z,31.92
2018-07-31T10:14:46.647Z,31.97
2018-07-31T10:15:46.640Z,32.01
2018-07-31T10:16:46.627Z,32.16
2018-07-31T10:17:46.692Z,32.41
2018-07-31T10:18:46.635Z,32.48
2018-07-31T10:19:46.592Z,32.37
2018-07-31T10:20:46.589Z,32.27
2018-07-31T10:21:46.575Z,32.34
2018-07-31T10:22:46.585Z,32.68
2018-07-31T10:23:46.558Z,32.71
2018-07-31T10:24:46.545Z,32.67
2018-07-31T10:25:46.533Z,32.36
2018-07-31T10:26:46.527Z,32.03
2018-07-31T10:27:46.538Z,31.96
2018-07-31T10:28:46.501Z,32.03
2018-07-31T10:29:46.506Z,32.04
2018-07-31T10:30:46.596Z,32.18
2018-07-31T10:31:46.477Z,32.16
2018-07-31T10:32:46.487Z,32.26
2018-07-31T10:33:46.476Z,32.38
2018-07-31T10:34:46.445Z,32.48
2018-07-31T10:35:46.441Z,32.65
2018-07-31T10:36:46.425Z,32.71
2018-07-31T10:37:46.455Z,32.86
2018-07-31T10:38:46.409Z,32.89
2018-07-31T10:39:46.397Z,32.77
2018-07-31T10:40:46.394Z,32.70
2018-07-31T10:41:46.375Z,32.46
2018-07-31T10:42:46.504Z,32.43
2018-07-31T10:43:46.385Z,32.33
2018-07-31T10:44:46.393Z,32.19
2018-07-31T10:45:46.335Z,32.16
2018-07-31T10:46:46.336Z,32.03
2018-07-31T10:47:46.348Z,32.15
2018-07-31T10:48:46.309Z,32.03
2018-07-31T10:49:46.305Z,32.00
2018-07-31T10:50:46.284Z,31.99
2018-07-31T10:51:46.288Z,32.04
2018-07-31T10:52:46.315Z,32.22
2018-07-31T10:53:46.262Z,32.45
2018-07-31T10:54:46.244Z,32.30
2018-07-31T10:55:46.236Z,32.00
2018-07-31T10:56:46.220Z,31.84
2018-07-31T10:57:46.212Z,32.01
2018-07-31T10:58:46.249Z,31.92
2018-07-31T10:59:46.220Z,32.04
2018-07-31T11:00:46.182Z,31.99
2018-07-31T11:01:46.172Z,32.04
2018-07-31T11:02:46.195Z,31.99
2018-07-31T11:03:46.191Z,32.09
2018-07-31T11:04:46.150Z,32.07
2018-07-31T11:05:46.135Z,32.14
2018-07-31T11:06:46.127Z,32.37
2018-07-31T11:07:46.117Z,32.51
2018-07-31T11:08:46.120Z,32.43
2018-07-31T11:09:46.092Z,32.37
2018-07-31T11:10:46.082Z,32.64
2018-07-31T11:11:46.075Z,32.80
2018-07-31T11:12:46.097Z,32.93
2018-07-31T11:13:46.100Z,32.97
2018-07-31T11:14:46.041Z,33.04
2018-07-31T11:15:46.034Z,32.90
2018-07-31T11:16:46.026Z,33.00
2018-07-31T11:17:46.024Z,33.09
2018-07-31T11:18:46.072Z,33.09
2018-07-31T11:19:46.016Z,33.05
2018-07-31T11:20:45.980Z,33.19
2018-07-31T11:21:45.978Z,33.55
2018-07-31T11:22:45.965Z,33.69
2018-07-31T11:23:45.951Z,33.67
2018-07-31T11:24:45.973Z,33.52
2018-07-31T11:25:45.947Z,33.67
2018-07-31T11:26:45.930Z,33.84
2018-07-31T11:27:45.928Z,33.94
2018-07-31T11:28:46.023Z,33.98
2018-07-31T11:29:45.932Z,34.18
2018-07-31T11:30:45.895Z,34.45
2018-07-31T11:31:45.890Z,34.64
2018-07-31T11:32:45.877Z,35.04
2018-07-31T11:33:45.916Z,35.24
2018-07-31T11:34:45.874Z,35.15
2018-07-31T11:35:45.913Z,34.77
2018-07-31T11:36:45.869Z,33.92
2018-07-31T11:37:45.834Z,33.30
2018-07-31T11:38:45.828Z,33.01
2018-07-31T11:39:45.822Z,33.09
2018-07-31T11:40:45.825Z,33.98
2018-07-31T11:41:45.802Z,34.11
2018-07-31T11:42:45.788Z,34.02
2018-07-31T11:43:45.777Z,33.94
2018-07-31T11:44:45.774Z,33.74
2018-07-31T11:45:45.782Z,33.47
2018-07-31T11:46:45.761Z,33.22
2018-07-31T11:47:45.744Z,33.02
2018-07-31T11:48:45.737Z,32.80
2018-07-31T11:49:45.757Z,32.52
2018-07-31T11:50:45.734Z,32.43
2018-07-31T11:51:45.708Z,32.12
2018-07-31T11:52:45.691Z,32.93
2018-07-31T11:53:45.683Z,33.74
2018-07-31T11:54:45.677Z,34.57
2018-07-31T11:55:45.720Z,35.15
2018-07-31T11:56:45.741Z,35.74
2018-07-31T11:57:45.654Z,36.17
2018-07-31T11:58:45.642Z,36.58
2018-07-31T11:59:45.633Z,35.89
2018-07-31T12:00:45.618Z,35.42
2018-07-31T12:01:45.648Z,34.88
2018-07-31T12:02:45.615Z,34.61
2018-07-31T12:03:45.598Z,35.55
2018-07-31T12:04:45.583Z,35.60
2018-07-31T12:05:45.577Z,35.66
2018-07-31T12:06:45.592Z,36.21
2018-07-31T12:07:45.556Z,35.22
2018-07-31T12:08:45.555Z,34.58
2018-07-31T12:09:45.543Z,35.79
2018-07-31T12:10:45.535Z,36.88
2018-07-31T12:11:45.594Z,37.23
2018-07-31T12:12:45.513Z,37.83
2018-07-31T12:13:45.508Z,38.48
2018-07-31T12:14:45.515Z,38.96
2018-07-31T12:15:45.489Z,38.80
2018-07-31T12:16:45.509Z,38.61
2018-07-31T12:17:45.490Z,38.95
2018-07-31T12:18:45.494Z,39.18
2018-07-31T12:19:45.472Z,39.18
2018-07-31T12:20:45.497Z,39.19
2018-07-31T12:21:46.395Z,38.79
2018-07-31T12:22:45.444Z,38.84
2018-07-31T12:23:45.474Z,39.38
2018-07-31T12:24:45.436Z,38.11
2018-07-31T12:25:45.416Z,37.40
2018-07-31T12:26:45.428Z,36.51
2018-07-31T12:27:45.397Z,37.64
2018-07-31T12:28:45.418Z,38.49
2018-07-31T12:29:45.385Z,37.39
2018-07-31T12:30:45.376Z,36.62
2018-07-31T12:31:45.389Z,35.95
2018-07-31T12:32:45.359Z,35.15
2018-07-31T12:33:45.348Z,35.23
2018-07-31T12:34:45.339Z,34.75
2018-07-31T12:35:45.357Z,34.18
2018-07-31T12:36:45.335Z,33.52
2018-07-31T12:37:45.313Z,33.17
2018-07-31T12:38:45.300Z,34.64
2018-07-31T12:39:45.311Z,35.73
2018-07-31T12:40:45.307Z,36.89
2018-07-31T12:41:45.298Z,37.18
2018-07-31T12:42:45.271Z,35.95
2018-07-31T12:43:45.273Z,34.97
2018-07-31T12:44:45.252Z,33.94
2018-07-31T12:45:45.260Z,33.31
2018-07-31T12:46:45.254Z,33.79
2018-07-31T12:47:45.220Z,33.99
2018-07-31T12:48:45.272Z,33.84
2018-07-31T12:49:45.206Z,34.52
2018-07-31T12:50:45.200Z,36.01
2018-07-31T12:51:45.204Z,37.13
2018-07-31T12:52:45.181Z,38.20